createdAt,value
2024-04-18T00:00:18.530Z,8.05
2024-04-18T00:02:44.982Z,6.88
2024-04-18T00:05:11.774Z,7.30
2024-04-18T00:07:38.302Z,6.13
2024-04-18T00:10:05.153Z,7.88
2024-04-18T00:12:31.633Z,5.68
2024-04-18T00:14:58.064Z,6.13
2024-04-18T00:17:24.687Z,7.45
2024-04-18T00:19:51.171Z,7.95
2024-04-18T00:22:17.608Z,7.13
2024-04-18T00:24:45.447Z,6.10
2024-04-18T00:27:11.977Z,7.97
2024-04-18T00:29:38.489Z,7.95
2024-04-18T00:32:05.296Z,8.05
2024-04-18T00:34:31.903Z,6.13
2024-04-18T00:36:58.346Z,7.45
2024-04-18T00:39:24.827Z,6.43
2024-04-18T00:41:51.295Z,7.13
2024-04-18T00:44:17.939Z,6.82
2024-04-18T00:46:44.631Z,6.80
2024-04-18T00:49:11.240Z,6.13
2024-04-18T00:51:38.381Z,8.40
2024-04-18T00:54:05.027Z,7.18
2024-04-18T00:56:31.647Z,7.40
2024-04-18T00:58:58.166Z,7.57
2024-04-18T01:01:26.449Z,8.00
2024-04-18T01:03:53.497Z,8.40
2024-04-18T01:06:20.094Z,5.97
2024-04-18T01:08:46.742Z,8.05
2024-04-18T01:11:13.191Z,9.10
2024-04-18T01:13:39.649Z,9.55
2024-04-18T01:16:06.624Z,8.25
2024-04-18T01:18:34.111Z,9.63
2024-04-18T01:21:00.690Z,8.82
2024-04-18T01:23:28.091Z,7.50
2024-04-18T01:25:55.118Z,7.43
2024-04-18T01:28:21.966Z,10.30
2024-04-18T01:30:48.564Z,7.15
2024-04-18T01:33:15.175Z,7.20
2024-04-18T01:35:41.811Z,9.18
2024-04-18T01:38:08.627Z,9.02
2024-04-18T01:40:35.092Z,8.35
2024-04-18T01:43:01.620Z,8.48
2024-04-18T01:45:28.588Z,7.90
2024-04-18T01:47:55.176Z,7.60
2024-04-18T01:50:21.651Z,7.50
2024-04-18T01:52:48.121Z,7.43
2024-04-18T01:55:14.552Z,6.38
2024-04-18T01:57:41.248Z,6.68
2024-04-18T02:00:08.268Z,6.70
2024-04-18T02:02:34.695Z,7.32
2024-04-18T02:05:01.213Z,5.88
2024-04-18T02:07:27.738Z,7.15
2024-04-18T02:09:54.229Z,6.63
2024-04-18T02:12:20.695Z,6.25
2024-04-18T02:14:47.124Z,9.50
2024-04-18T02:17:13.620Z,5.70
2024-04-18T02:19:40.106Z,8.80
2024-04-18T02:22:06.591Z,7.78
2024-04-18T02:24:38.767Z,6.85
2024-04-18T02:27:05.547Z,8.55
2024-04-18T02:29:31.963Z,7.93
2024-04-18T02:31:58.417Z,6.85
2024-04-18T02:34:24.869Z,9.15
2024-04-18T02:36:51.363Z,11.00
2024-04-18T02:39:17.882Z,8.95
2024-04-18T02:41:44.376Z,10.20
2024-04-18T02:44:10.812Z,9.50
2024-04-18T02:46:37.263Z,8.52
2024-04-18T02:49:03.763Z,9.98
2024-04-18T02:51:30.260Z,7.20
2024-04-18T02:53:56.727Z,7.95
2024-04-18T02:56:23.152Z,10.82
2024-04-18T02:58:49.575Z,9.63
2024-04-18T03:01:16.370Z,10.25
2024-04-18T03:03:42.924Z,11.27
2024-04-18T03:06:09.429Z,10.95
2024-04-18T03:08:35.872Z,10.60
2024-04-18T03:11:02.315Z,10.00
2024-04-18T03:13:28.829Z,9.35
2024-04-18T03:15:55.347Z,8.65
2024-04-18T03:18:21.980Z,8.38
2024-04-18T03:20:54.878Z,8.63
2024-04-18T03:23:21.392Z,6.63
2024-04-18T03:25:48.092Z,9.00
2024-04-18T03:28:15.399Z,8.05
2024-04-18T03:30:41.897Z,7.45
2024-04-18T03:33:09.115Z,5.70
2024-04-18T03:35:39.310Z,6.40
2024-04-18T03:38:05.769Z,7.05
2024-04-18T03:40:32.954Z,6.57
2024-04-18T03:42:59.452Z,7.68
2024-04-18T03:45:25.911Z,7.15
2024-04-18T03:47:52.751Z,8.07
2024-04-18T03:50:19.640Z,7.90
2024-04-18T03:52:46.436Z,7.05
2024-04-18T03:55:12.973Z,6.97
2024-04-18T03:57:39.427Z,7.88
2024-04-18T04:00:06.609Z,7.25
2024-04-18T04:02:34.120Z,7.07
2024-04-18T04:05:00.677Z,9.98
2024-04-18T04:07:27.146Z,7.57
2024-04-18T04:09:53.629Z,6.50
2024-04-18T04:12:20.082Z,4.47
2024-04-18T04:14:46.578Z,4.07
2024-04-18T04:17:13.024Z,3.80
2024-04-18T04:19:39.488Z,3.33
2024-04-18T04:22:06.290Z,2.72
2024-04-18T04:24:32.882Z,3.92
2024-04-18T04:26:59.382Z,2.17
2024-04-18T04:29:25.985Z,3.05
2024-04-18T04:31:52.481Z,2.10
2024-04-18T04:34:19.001Z,2.95
2024-04-18T04:36:45.531Z,3.17
2024-04-18T04:39:11.988Z,2.78
2024-04-18T04:41:38.445Z,3.58
2024-04-18T04:44:04.951Z,3.25
2024-04-18T04:46:31.407Z,2.88
2024-04-18T04:48:57.995Z,4.50
2024-04-18T04:51:24.760Z,3.30
2024-04-18T04:53:54.259Z,2.65
2024-04-18T04:56:21.063Z,7.78
2024-04-18T04:58:47.550Z,5.35
2024-04-18T05:01:14.056Z,2.58
2024-04-18T05:03:40.573Z,5.05
2024-04-18T05:06:07.185Z,4.72
2024-04-18T05:08:33.671Z,6.13
2024-04-18T05:11:02.739Z,5.25
2024-04-18T05:13:29.245Z,5.78
2024-04-18T05:15:55.798Z,5.13
2024-04-18T05:18:22.422Z,6.35
2024-04-18T05:20:48.885Z,6.38
2024-04-18T05:23:15.362Z,5.88
2024-04-18T05:25:41.968Z,4.47
2024-04-18T05:28:08.448Z,4.18
2024-04-18T05:30:35.029Z,5.63
2024-04-18T05:33:01.542Z,4.25
2024-04-18T05:35:28.024Z,4.47
2024-04-18T05:37:54.523Z,4.75
2024-04-18T05:40:20.973Z,6.03
2024-04-18T05:42:47.482Z,4.38
2024-04-18T05:45:14.118Z,5.45
2024-04-18T05:47:40.579Z,4.25
2024-04-18T05:50:07.347Z,3.65
2024-04-18T05:52:33.765Z,3.80
2024-04-18T05:55:00.431Z,3.75
2024-04-18T05:57:26.979Z,4.60
2024-04-18T05:59:53.462Z,4.43
2024-04-18T06:02:19.953Z,4.60
2024-04-18T06:04:46.510Z,3.88
2024-04-18T06:07:13.011Z,4.72
2024-04-18T06:09:39.509Z,4.88
2024-04-18T06:12:06.382Z,4.30
2024-04-18T06:14:32.809Z,3.95
2024-04-18T06:16:59.424Z,4.70
2024-04-18T06:19:28.667Z,4.05
2024-04-18T06:21:56.259Z,4.22
2024-04-18T06:24:22.817Z,5.78
2024-04-18T06:26:49.322Z,4.80
2024-04-18T06:29:15.785Z,4.60
2024-04-18T06:31:42.299Z,4.93
2024-04-18T06:34:08.824Z,4.85
2024-04-18T06:36:35.348Z,5.60
2024-04-18T06:39:01.937Z,5.68
2024-04-18T06:41:28.412Z,5.95
2024-04-18T06:43:54.878Z,6.53
2024-04-18T06:46:21.344Z,6.28
2024-04-18T06:48:47.889Z,8.02
2024-04-18T06:51:14.368Z,8.18
2024-04-18T06:53:40.886Z,8.35
2024-04-18T06:56:07.311Z,8.40
2024-04-18T06:58:33.758Z,7.43
2024-04-18T07:01:00.283Z,8.90
2024-04-18T07:03:26.972Z,9.15
2024-04-18T07:05:53.804Z,8.27
2024-04-18T07:08:20.310Z,8.13
2024-04-18T07:10:47.166Z,7.70
2024-04-18T07:13:13.601Z,7.97
2024-04-18T07:15:40.065Z,9.65
2024-04-18T07:18:06.855Z,8.55
2024-04-18T07:20:33.463Z,9.25
2024-04-18T07:22:59.995Z,9.38
2024-04-18T07:25:26.438Z,9.85
2024-04-18T07:27:52.988Z,9.30
2024-04-18T07:30:19.618Z,8.93
2024-04-18T07:32:46.313Z,8.82
2024-04-18T07:35:12.797Z,8.75
2024-04-18T07:37:39.422Z,7.47
2024-04-18T07:40:06.369Z,6.28
2024-04-18T07:42:32.898Z,6.00
2024-04-18T07:44:59.361Z,7.28
2024-04-18T07:47:25.893Z,5.13
2024-04-18T07:49:52.420Z,6.10
2024-04-18T07:52:19.050Z,4.25
2024-04-18T07:54:46.769Z,4.28
2024-04-18T07:57:14.319Z,3.97
2024-04-18T07:59:41.874Z,4.05
2024-04-18T08:02:10.202Z,4.18
2024-04-18T08:04:52.869Z,4.80
2024-04-18T08:07:26.922Z,5.65
2024-04-18T08:09:58.611Z,5.30
2024-04-18T08:12:30.329Z,4.32
2024-04-18T08:15:04.297Z,6.15
2024-04-18T08:17:34.574Z,5.50
2024-04-18T08:20:01.044Z,4.82
2024-04-18T08:22:27.484Z,4.20
2024-04-18T08:24:53.969Z,4.00
2024-04-18T08:27:20.429Z,4.10
2024-04-18T08:29:46.928Z,3.35
2024-04-18T08:32:13.699Z,3.10
2024-04-18T08:34:43.146Z,3.13
2024-04-18T08:37:10.762Z,3.40
2024-04-18T08:39:37.470Z,3.33
2024-04-18T08:42:05.101Z,7.18
2024-04-18T08:44:31.978Z,3.10
2024-04-18T08:47:00.483Z,2.80
2024-04-18T08:49:27.666Z,4.22
2024-04-18T08:51:55.274Z,3.10
2024-04-18T08:54:21.840Z,2.95
2024-04-18T08:56:51.227Z,3.60
2024-04-18T08:59:21.148Z,3.60
2024-04-18T09:01:47.791Z,3.70
2024-04-18T09:04:14.223Z,3.40
2024-04-18T09:06:40.671Z,3.05
2024-04-18T09:09:08.011Z,3.85
2024-04-18T09:11:35.224Z,3.63
2024-04-18T09:14:02.436Z,3.67
2024-04-18T09:16:28.956Z,3.58
2024-04-18T09:18:55.549Z,4.40
2024-04-18T09:21:22.066Z,4.30
2024-04-18T09:23:48.578Z,4.07
2024-04-18T09:26:14.996Z,4.20
2024-04-18T09:28:41.468Z,4.07
2024-04-18T09:31:08.094Z,4.43
2024-04-18T09:33:34.834Z,5.00
2024-04-18T09:36:02.489Z,4.80
2024-04-18T09:38:33.259Z,4.13
2024-04-18T09:41:06.573Z,3.55
2024-04-18T09:44:03.187Z,3.50
2024-04-18T09:46:29.983Z,3.58
2024-04-18T09:48:56.561Z,3.50
2024-04-18T09:51:23.943Z,4.20
2024-04-18T09:53:50.653Z,4.70
2024-04-18T09:56:17.366Z,4.18
2024-04-18T09:58:44.864Z,4.53
2024-04-18T10:01:12.049Z,3.55
2024-04-18T10:03:38.806Z,2.95
2024-04-18T10:06:10.260Z,2.80
2024-04-18T10:08:44.052Z,2.75
2024-04-18T10:11:11.467Z,3.05
2024-04-18T10:13:38.046Z,2.95
2024-04-18T10:16:09.625Z,2.90
2024-04-18T10:18:38.491Z,2.13
2024-04-18T10:21:33.287Z,4.68
2024-04-18T10:24:10.612Z,2.50
2024-04-18T10:26:37.160Z,2.60
2024-04-18T10:29:03.737Z,3.50
2024-04-18T10:31:30.449Z,3.63
2024-04-18T10:33:58.296Z,4.50
2024-04-18T10:36:26.009Z,5.22
2024-04-18T10:38:52.652Z,4.80
2024-04-18T10:41:23.892Z,5.50
2024-04-18T10:43:50.555Z,4.43
2024-04-18T10:46:17.461Z,4.53
2024-04-18T10:48:44.187Z,4.30
2024-04-18T10:51:10.920Z,3.92
2024-04-18T10:53:39.856Z,5.18
2024-04-18T10:56:06.420Z,6.15
2024-04-18T10:58:33.207Z,6.53
2024-04-18T11:01:01.084Z,7.35
2024-04-18T11:03:28.465Z,7.85
2024-04-18T11:05:56.742Z,5.53
2024-04-18T11:08:25.360Z,5.78
2024-04-18T11:10:52.500Z,4.50
2024-04-18T11:13:20.482Z,6.43
2024-04-18T11:15:50.075Z,4.50
2024-04-18T11:18:16.638Z,4.28
2024-04-18T11:20:43.347Z,4.75
2024-04-18T11:23:15.151Z,5.40
2024-04-18T11:25:42.651Z,4.55
2024-04-18T11:28:09.585Z,7.25
2024-04-18T11:30:43.116Z,8.02
2024-04-18T11:33:10.722Z,9.02
2024-04-18T11:35:37.230Z,9.07
2024-04-18T11:38:04.164Z,9.52
2024-04-18T11:40:31.167Z,9.27
2024-04-18T11:42:57.641Z,8.40
2024-04-18T11:45:24.220Z,7.72
2024-04-18T11:47:58.107Z,8.50
2024-04-18T11:50:24.796Z,6.45
2024-04-18T11:52:51.264Z,5.95
2024-04-18T11:55:17.719Z,5.93
2024-04-18T11:57:44.189Z,5.88
2024-04-18T12:00:11.018Z,7.00
2024-04-18T12:02:37.499Z,5.53
2024-04-18T12:05:04.444Z,4.78
2024-04-18T12:07:31.063Z,5.20
2024-04-18T12:09:57.501Z,5.45
2024-04-18T12:12:24.036Z,3.95
2024-04-18T12:14:50.567Z,4.70
2024-04-18T12:17:17.661Z,4.35
2024-04-18T12:19:44.892Z,4.30
2024-04-18T12:22:13.790Z,4.13
2024-04-18T12:24:40.274Z,4.93
2024-04-18T12:27:09.092Z,4.88
2024-04-18T12:29:35.591Z,4.22
2024-04-18T12:32:02.154Z,3.75
2024-04-18T12:34:28.681Z,4.10
2024-04-18T12:36:55.177Z,3.60
2024-04-18T12:39:21.667Z,3.70
2024-04-18T12:41:48.143Z,3.63
2024-04-18T12:44:14.781Z,4.68
2024-04-18T12:46:41.979Z,4.60
2024-04-18T12:49:08.615Z,3.63
2024-04-18T12:51:35.323Z,4.28
2024-04-18T12:54:01.918Z,4.15
2024-04-18T12:56:28.583Z,5.00
2024-04-18T12:58:55.112Z,4.15
2024-04-18T13:01:21.712Z,4.32
2024-04-18T13:03:48.320Z,4.40
2024-04-18T13:06:16.147Z,4.88
2024-04-18T13:08:42.658Z,5.80
2024-04-18T13:11:09.117Z,5.13
2024-04-18T13:13:35.574Z,5.00
2024-04-18T13:16:03.350Z,5.25
2024-04-18T13:18:30.146Z,5.47
2024-04-18T13:20:58.866Z,4.95
2024-04-18T13:23:25.327Z,5.28
2024-04-18T13:25:51.758Z,4.95
2024-04-18T13:28:18.176Z,4.80
2024-04-18T13:30:44.677Z,5.22
2024-04-18T13:33:11.315Z,5.28
2024-04-18T13:35:37.923Z,5.15
2024-04-18T13:38:04.779Z,5.28
2024-04-18T13:40:31.240Z,6.35
2024-04-18T13:42:58.822Z,5.00
2024-04-18T13:45:25.460Z,4.78
2024-04-18T13:47:52.065Z,5.70
2024-04-18T13:50:18.603Z,5.60
2024-04-18T13:52:45.061Z,5.18
2024-04-18T13:55:11.519Z,4.53
2024-04-18T13:57:38.087Z,5.40
2024-04-18T14:00:05.108Z,4.18
2024-04-18T14:02:31.601Z,5.00
2024-04-18T14:04:58.140Z,4.38
2024-04-18T14:07:24.611Z,3.70
2024-04-18T14:09:51.334Z,3.92
2024-04-18T14:12:17.823Z,3.60
2024-04-18T14:14:44.266Z,3.00
2024-04-18T14:17:10.712Z,3.45
2024-04-18T14:19:37.144Z,4.20
2024-04-18T14:22:03.915Z,4.97
2024-04-18T14:24:30.402Z,5.10
2024-04-18T14:26:56.927Z,5.25
2024-04-18T14:29:23.361Z,4.57
2024-04-18T14:31:49.800Z,4.88
2024-04-18T14:34:16.421Z,4.50
2024-04-18T14:36:43.232Z,4.22
2024-04-18T14:39:09.820Z,4.80
2024-04-18T14:41:36.479Z,4.70
2024-04-18T14:44:02.956Z,5.80
2024-04-18T14:46:29.510Z,4.63
2024-04-18T14:48:59.152Z,4.45
2024-04-18T14:51:26.059Z,3.40
2024-04-18T14:53:52.562Z,3.00
2024-04-18T14:56:19.039Z,2.75
2024-04-18T14:58:45.546Z,3.78
2024-04-18T15:01:12.031Z,3.63
2024-04-18T15:03:38.758Z,3.03
2024-04-18T15:06:05.666Z,3.70
2024-04-18T15:08:32.211Z,4.07
2024-04-18T15:10:58.698Z,3.95
2024-04-18T15:13:25.331Z,3.92
2024-04-18T15:15:51.817Z,4.20
2024-04-18T15:18:18.358Z,3.83
2024-04-18T15:20:44.894Z,3.78
2024-04-18T15:23:11.402Z,4.28
2024-04-18T15:25:37.854Z,3.38
2024-04-18T15:28:04.655Z,3.60
2024-04-18T15:30:31.254Z,3.97
2024-04-18T15:32:57.811Z,3.45
2024-04-18T15:35:24.295Z,3.00
2024-04-18T15:37:50.929Z,3.05
2024-04-18T15:40:18.210Z,3.45
2024-04-18T15:42:45.097Z,3.30
2024-04-18T15:45:11.656Z,2.63
2024-04-18T15:47:38.286Z,3.42
2024-04-18T15:50:05.265Z,3.42
2024-04-18T15:52:31.696Z,3.45
2024-04-18T15:55:08.631Z,3.63
2024-04-18T15:57:42.208Z,3.72
2024-04-18T16:00:08.981Z,3.75
2024-04-18T16:02:35.474Z,3.45
2024-04-18T16:05:02.323Z,3.08
2024-04-18T16:07:29.057Z,2.72
2024-04-18T16:09:55.513Z,3.13
2024-04-18T16:12:22.219Z,2.53
2024-04-18T16:14:48.985Z,2.85
2024-04-18T16:17:15.427Z,3.28
2024-04-18T16:19:41.873Z,2.20
2024-04-18T16:22:08.353Z,3.00
2024-04-18T16:24:34.871Z,3.38
2024-04-18T16:27:01.364Z,2.92
2024-04-18T16:29:27.784Z,3.00
2024-04-18T16:31:54.267Z,3.08
2024-04-18T16:34:20.750Z,3.40
2024-04-18T16:36:52.791Z,2.65
2024-04-18T16:39:27.029Z,3.90
2024-04-18T16:41:53.465Z,3.60
2024-04-18T16:44:19.917Z,3.83
2024-04-18T16:46:46.366Z,3.30
2024-04-18T16:49:12.827Z,3.95
2024-04-18T16:51:39.338Z,4.70
2024-04-18T16:54:05.977Z,3.60
2024-04-18T16:56:33.544Z,4.18
2024-04-18T16:58:59.981Z,5.05
2024-04-18T17:01:26.505Z,5.13
2024-04-18T17:03:53.154Z,4.80
2024-04-18T17:06:19.771Z,4.55
2024-04-18T17:08:46.270Z,4.93
2024-04-18T17:11:12.755Z,5.13
2024-04-18T17:13:39.211Z,5.03
2024-04-18T17:16:05.887Z,4.30
2024-04-18T17:18:32.529Z,4.15
2024-04-18T17:20:59.053Z,4.40
2024-04-18T17:23:25.547Z,5.18
2024-04-18T17:25:52.231Z,4.80
2024-04-18T17:28:19.024Z,4.22
2024-04-18T17:30:46.031Z,4.22
2024-04-18T17:33:12.542Z,5.22
2024-04-18T17:35:39.019Z,5.45
2024-04-18T17:38:05.468Z,6.10
2024-04-18T17:40:32.051Z,7.65
2024-04-18T17:42:58.544Z,5.38
2024-04-18T17:45:24.980Z,5.90
2024-04-18T17:47:51.533Z,4.45
2024-04-18T17:50:18.192Z,5.20
2024-04-18T17:52:44.655Z,6.93
2024-04-18T17:55:11.133Z,8.75
2024-04-18T17:57:37.661Z,4.95
2024-04-18T18:00:04.656Z,4.72
2024-04-18T18:02:31.247Z,5.93
2024-04-18T18:04:57.685Z,6.00
2024-04-18T18:07:27.337Z,5.30
2024-04-18T18:09:54.516Z,5.95
2024-04-18T18:12:21.153Z,4.90
2024-04-18T18:14:47.764Z,5.60
2024-04-18T18:17:14.260Z,5.43
2024-04-18T18:19:40.890Z,5.88
2024-04-18T18:22:07.464Z,7.00
2024-04-18T18:24:33.969Z,5.93
2024-04-18T18:27:00.416Z,6.63
2024-04-18T18:29:26.854Z,5.22
2024-04-18T18:31:53.315Z,6.00
2024-04-18T18:34:19.786Z,6.90
2024-04-18T18:36:46.352Z,5.35
2024-04-18T18:39:13.237Z,7.43
2024-04-18T18:41:39.746Z,7.72
2024-04-18T18:44:06.279Z,7.68
2024-04-18T18:46:32.960Z,5.90
2024-04-18T18:48:59.516Z,7.20
2024-04-18T18:51:26.123Z,7.63
2024-04-18T18:53:52.599Z,6.70
2024-04-18T18:56:19.042Z,6.30
2024-04-18T18:58:45.518Z,7.53
2024-04-18T19:01:11.995Z,4.95
2024-04-18T19:03:38.522Z,5.95
2024-04-18T19:06:05.263Z,5.53
2024-04-18T19:08:31.721Z,7.07
2024-04-18T19:11:02.581Z,8.00
2024-04-18T19:13:29.116Z,6.50
2024-04-18T19:15:58.450Z,6.25
2024-04-18T19:18:25.630Z,6.10
2024-04-18T19:20:52.442Z,6.95
2024-04-18T19:23:38.654Z,5.65
2024-04-18T19:26:05.795Z,5.80
2024-04-18T19:28:32.327Z,8.27
2024-04-18T19:30:58.759Z,11.07
2024-04-18T19:33:25.457Z,10.05
2024-04-18T19:35:51.995Z,7.43
2024-04-18T19:38:19.171Z,8.00
2024-04-18T19:40:49.539Z,9.02
2024-04-18T19:43:15.992Z,9.25
2024-04-18T19:45:53.138Z,9.45
2024-04-18T19:48:19.696Z,9.02
2024-04-18T19:50:46.328Z,10.18
2024-04-18T19:53:12.801Z,10.13
2024-04-18T19:55:39.242Z,9.80
2024-04-18T19:58:05.691Z,10.65
2024-04-18T20:00:32.228Z,10.10
2024-04-18T20:02:58.911Z,11.27
2024-04-18T20:05:25.394Z,11.65
2024-04-18T20:07:51.838Z,10.43
2024-04-18T20:10:18.285Z,10.05
2024-04-18T20:12:44.923Z,11.60
2024-04-18T20:15:11.412Z,11.95
2024-04-18T20:17:37.969Z,11.77
2024-04-18T20:20:05.148Z,12.77
2024-04-18T20:22:31.628Z,11.50
2024-04-18T20:24:58.112Z,11.35
2024-04-18T20:27:24.620Z,12.10
2024-04-18T20:29:51.277Z,12.65
2024-04-18T20:32:17.983Z,13.70
2024-04-18T20:34:45.105Z,14.20
2024-04-18T20:37:11.582Z,11.25
2024-04-18T20:39:38.162Z,12.02
2024-04-18T20:42:05.250Z,12.25
2024-04-18T20:44:32.025Z,11.85
2024-04-18T20:46:58.471Z,9.52
2024-04-18T20:49:24.916Z,10.32
2024-04-18T20:51:51.389Z,11.20
2024-04-18T20:54:17.884Z,12.13
2024-04-18T20:56:44.368Z,11.50
2024-04-18T20:59:10.843Z,10.98
2024-04-18T21:01:37.300Z,10.25
2024-04-18T21:04:04.365Z,8.52
2024-04-18T21:06:30.959Z,9.73
2024-04-18T21:08:57.435Z,9.43
2024-04-18T21:11:24.903Z,9.48
2024-04-18T21:13:51.432Z,9.23
2024-04-18T21:16:17.967Z,8.73
2024-04-18T21:18:44.555Z,11.52
2024-04-18T21:21:11.050Z,9.65
2024-04-18T21:23:37.494Z,8.95
2024-04-18T21:26:04.131Z,10.73
2024-04-18T21:28:30.578Z,9.75
2024-04-18T21:30:57.479Z,8.38
2024-04-18T21:33:24.126Z,7.97
2024-04-18T21:35:50.662Z,6.25
2024-04-18T21:38:17.381Z,6.80
2024-04-18T21:40:43.830Z,6.18
2024-04-18T21:43:10.261Z,6.93
2024-04-18T21:45:36.751Z,6.45
2024-04-18T21:48:03.681Z,6.43
2024-04-18T21:50:30.201Z,7.50
2024-04-18T21:52:56.770Z,6.38
2024-04-18T21:55:23.384Z,6.20
2024-04-18T21:57:49.826Z,7.05
2024-04-18T22:00:16.449Z,7.55
2024-04-18T22:02:43.082Z,6.72
2024-04-18T22:05:09.583Z,6.47
2024-04-18T22:07:36.040Z,5.85
2024-04-18T22:10:02.612Z,7.85
2024-04-18T22:12:29.500Z,6.82
2024-04-18T22:14:55.974Z,7.97
2024-04-18T22:17:22.470Z,6.90
2024-04-18T22:19:49.051Z,9.07
2024-04-18T22:22:15.493Z,7.95
2024-04-18T22:24:42.022Z,10.35
2024-04-18T22:27:08.591Z,8.85
2024-04-18T22:29:35.091Z,9.10
2024-04-18T22:32:01.601Z,9.60
2024-04-18T22:34:34.791Z,9.52
2024-04-18T22:37:03.436Z,8.98
2024-04-18T22:39:29.949Z,8.40
2024-04-18T22:41:56.387Z,10.50
2024-04-18T22:44:22.841Z,11.15
2024-04-18T22:46:49.465Z,10.40
2024-04-18T22:49:15.996Z,9.63
2024-04-18T22:51:42.547Z,9.35
2024-04-18T22:54:09.117Z,10.32
2024-04-18T22:56:35.567Z,9.63
2024-04-18T22:59:02.020Z,9.70
2024-04-18T23:01:28.501Z,10.52
2024-04-18T23:03:55.010Z,9.75
2024-04-18T23:06:21.482Z,8.25
2024-04-18T23:08:48.063Z,10.80
2024-04-18T23:11:14.808Z,9.30
2024-04-18T23:13:41.436Z,10.00
2024-04-18T23:16:08.185Z,8.35
2024-04-18T23:18:35.453Z,8.85
2024-04-18T23:21:02.039Z,9.38
2024-04-18T23:23:28.455Z,8.63
2024-04-18T23:25:54.918Z,9.88
2024-04-18T23:28:21.382Z,8.65
2024-04-18T23:30:47.850Z,11.70
2024-04-18T23:33:14.410Z,12.70
2024-04-18T23:35:42.874Z,11.77
2024-04-18T23:38:09.330Z,15.18
2024-04-18T23:40:36.020Z,11.55
2024-04-18T23:43:02.605Z,11.48
2024-04-18T23:45:29.027Z,11.63
2024-04-18T23:47:55.601Z,9.27
2024-04-18T23:50:22.304Z,9.68
2024-04-18T23:52:48.950Z,7.95
2024-04-18T23:55:15.518Z,9.18
2024-04-18T23:57:42.102Z,8.98
